NCAR-RAP Real-Time Weather Data

Output produced by METARs form (12 May 2021  12:34 UTC)
found at http://weather.rap.ucar.edu/surface/
 
KINW 121156Z AUTO 23003KT 10SM CLR 08/M13 A3015 RMK AO2 SLP155 T00831128 10167 20078 53017 TSNO
KINW 121056Z AUTO 00000KT 10SM CLR 11/M12 A3013 RMK AO2 SLP142 T01061117 TSNO
KINW 120956Z AUTO 28010KT 10SM CLR 12/M11 A3010 RMK AO2 SLP133 T01221111 TSNO
KINW 120856Z AUTO 28011KT 10SM CLR 13/M11 A3009 RMK AO2 SLP129 T01281111 51005 TSNO
KINW 120756Z AUTO 25013KT 10SM CLR 14/M12 A3009 RMK AO2 SLP128 T01391117 TSNO
KINW 120656Z AUTO 30010KT 10SM CLR 15/M12 A3008 RMK AO2 SLP127 T01501122 402830056 TSNO
KINW 120556Z AUTO 26011KT 10SM CLR 17/M12 A3007 RMK AO2 SLP125 T01671122 10267 20167 51019 TSNO
KINW 120456Z AUTO 25012KT 10SM CLR 20/M11 A3006 RMK AO2 SLP117 T02001111 TSNO
KINW 120356Z AUTO 26012KT 10SM CLR 22/M11 A3004 RMK AO2 SLP111 T02171106 TSNO
KINW 120256Z AUTO 28007KT 10SM CLR 21/M11 A3001 RMK AO2 SLP106 T02111111 53012 TSNO
KINW 120156Z AUTO 00000KT 10SM CLR 24/M09 A2998 RMK AO2 SLP094 T02441089 TSNO
KINW 120056Z AUTO 36010KT 10SM CLR 26/M08 A2997 RMK AO2 SLP097 T02561083 TSNO
KINW 112356Z AUTO 24011G20KT 10SM CLR 27/M12 A2997 RMK AO2 SLP097 T02671122 10283 20217 55012 TSNO
KINW 112256Z AUTO VRB05KT 10SM CLR 28/M09 A2996 RMK AO2 SLP084 T02781089 TSNO